sensor_id;sensor_type;location;lat;lon;timestamp;P1;durP1;ratioP1;P2;durP2;ratioP2
41677;SDS011;27364;49.026;8.712;2023-01-15T00:02:21;1.33;;;0.80;;
41677;SDS011;27364;49.026;8.712;2023-01-15T00:04:51;1.48;;;0.80;;
41677;SDS011;27364;49.026;8.712;2023-01-15T00:09:45;0.60;;;0.60;;
41677;SDS011;27364;49.026;8.712;2023-01-15T00:12:11;1.17;;;0.50;;
41677;SDS011;27364;49.026;8.712;2023-01-15T00:14:41;1.42;;;0.70;;
41677;SDS011;27364;49.026;8.712;2023-01-15T00:17:08;0.98;;;0.60;;
41677;SDS011;27364;49.026;8.712;2023-01-15T00:19:33;0.95;;;0.63;;
41677;SDS011;27364;49.026;8.712;2023-01-15T00:21:59;1.77;;;0.60;;
41677;SDS011;27364;49.026;8.712;2023-01-15T00:24:26;1.10;;;0.60;;
41677;SDS011;27364;49.026;8.712;2023-01-15T00:27:11;1.30;;;0.60;;
41677;SDS011;27364;49.026;8.712;2023-01-15T00:29:57;1.00;;;0.77;;
41677;SDS011;27364;49.026;8.712;2023-01-15T00:32:22;0.60;;;0.60;;
41677;SDS011;27364;49.026;8.712;2023-01-15T00:37:22;0.77;;;0.60;;
41677;SDS011;27364;49.026;8.712;2023-01-15T00:39:48;0.82;;;0.70;;
41677;SDS011;27364;49.026;8.712;2023-01-15T00:42:13;1.30;;;0.70;;
41677;SDS011;27364;49.026;8.712;2023-01-15T00:44:40;0.80;;;0.63;;
41677;SDS011;27364;49.026;8.712;2023-01-15T00:47:07;1.35;;;0.70;;
41677;SDS011;27364;49.026;8.712;2023-01-15T00:49:40;2.72;;;0.80;;
41677;SDS011;27364;49.026;8.712;2023-01-15T00:54:32;1.27;;;0.80;;
41677;SDS011;27364;49.026;8.712;2023-01-15T00:56:57;1.33;;;0.63;;
41677;SDS011;27364;49.026;8.712;2023-01-15T00:59:24;0.60;;;0.60;;
41677;SDS011;27364;49.026;8.712;2023-01-15T01:01:50;1.70;;;0.70;;
41677;SDS011;27364;49.026;8.712;2023-01-15T01:04:15;1.08;;;0.60;;
41677;SDS011;27364;49.026;8.712;2023-01-15T01:06:41;2.05;;;0.70;;
41677;SDS011;27364;49.026;8.712;2023-01-15T01:09:06;1.15;;;0.70;;
41677;SDS011;27364;49.026;8.712;2023-01-15T01:11:34;0.88;;;0.60;;
41677;SDS011;27364;49.026;8.712;2023-01-15T01:14:01;0.80;;;0.70;;
41677;SDS011;27364;49.026;8.712;2023-01-15T01:19:00;1.50;;;0.80;;
41677;SDS011;27364;49.026;8.712;2023-01-15T01:23:53;0.73;;;0.70;;
41677;SDS011;27364;49.026;8.712;2023-01-15T01:26:27;0.70;;;0.70;;
41677;SDS011;27364;49.026;8.712;2023-01-15T01:28:58;1.08;;;0.65;;
41677;SDS011;27364;49.026;8.712;2023-01-15T01:31:25;0.82;;;0.70;;
41677;SDS011;27364;49.026;8.712;2023-01-15T01:33:56;1.15;;;0.73;;
41677;SDS011;27364;49.026;8.712;2023-01-15T01:36:31;0.70;;;0.70;;
41677;SDS011;27364;49.026;8.712;2023-01-15T01:39:01;0.50;;;0.50;;
41677;SDS011;27364;49.026;8.712;2023-01-15T01:41:29;0.57;;;0.57;;
41677;SDS011;27364;49.026;8.712;2023-01-15T01:43:59;1.00;;;0.80;;
41677;SDS011;27364;49.026;8.712;2023-01-15T01:46:36;1.00;;;0.70;;
41677;SDS011;27364;49.026;8.712;2023-01-15T01:49:03;0.50;;;0.50;;
41677;SDS011;27364;49.026;8.712;2023-01-15T01:51:41;0.80;;;0.70;;
41677;SDS011;27364;49.026;8.712;2023-01-15T01:54:14;1.27;;;0.70;;
41677;SDS011;27364;49.026;8.712;2023-01-15T01:56:44;1.02;;;0.60;;
41677;SDS011;27364;49.026;8.712;2023-01-15T01:59:14;0.60;;;0.60;;
41677;SDS011;27364;49.026;8.712;2023-01-15T02:01:41;1.08;;;0.65;;
41677;SDS011;27364;49.026;8.712;2023-01-15T02:04:12;0.73;;;0.63;;
41677;SDS011;27364;49.026;8.712;2023-01-15T02:06:39;1.15;;;0.70;;
41677;SDS011;27364;49.026;8.712;2023-01-15T02:09:06;0.75;;;0.60;;
41677;SDS011;27364;49.026;8.712;2023-01-15T02:11:32;0.82;;;0.50;;
41677;SDS011;27364;49.026;8.712;2023-01-15T02:14:14;0.87;;;0.70;;
41677;SDS011;27364;49.026;8.712;2023-01-15T02:16:43;0.50;;;0.50;;
41677;SDS011;27364;49.026;8.712;2023-01-15T02:22:34;0.50;;;0.50;;
41677;SDS011;27364;49.026;8.712;2023-01-15T02:28:00;0.57;;;0.57;;
41677;SDS011;27364;49.026;8.712;2023-01-15T02:30:46;0.95;;;0.57;;
41677;SDS011;27364;49.026;8.712;2023-01-15T02:33:17;0.30;;;0.30;;
41677;SDS011;27364;49.026;8.712;2023-01-15T02:35:56;0.50;;;0.50;;
41677;SDS011;27364;49.026;8.712;2023-01-15T02:38:36;1.17;;;0.52;;
41677;SDS011;27364;49.026;8.712;2023-01-15T02:41:07;0.65;;;0.50;;
41677;SDS011;27364;49.026;8.712;2023-01-15T02:43:40;0.60;;;0.60;;
41677;SDS011;27364;49.026;8.712;2023-01-15T02:46:14;1.83;;;0.73;;
41677;SDS011;27364;49.026;8.712;2023-01-15T02:48:43;0.60;;;0.60;;
41677;SDS011;27364;49.026;8.712;2023-01-15T02:51:14;0.55;;;0.50;;
41677;SDS011;27364;49.026;8.712;2023-01-15T02:53:48;1.08;;;0.65;;
41677;SDS011;27364;49.026;8.712;2023-01-15T02:56:19;1.15;;;0.65;;
41677;SDS011;27364;49.026;8.712;2023-01-15T02:58:48;0.50;;;0.50;;
41677;SDS011;27364;49.026;8.712;2023-01-15T03:01:21;0.60;;;0.60;;
41677;SDS011;27364;49.026;8.712;2023-01-15T03:03:56;0.45;;;0.45;;
41677;SDS011;27364;49.026;8.712;2023-01-15T03:09:31;0.60;;;0.60;;
41677;SDS011;27364;49.026;8.712;2023-01-15T03:12:03;0.63;;;0.50;;
41677;SDS011;27364;49.026;8.712;2023-01-15T03:14:51;0.32;;;0.32;;
41677;SDS011;27364;49.026;8.712;2023-01-15T03:17:44;0.40;;;0.40;;
41677;SDS011;27364;49.026;8.712;2023-01-15T03:20:19;0.40;;;0.40;;
41677;SDS011;27364;49.026;8.712;2023-01-15T03:22:50;1.23;;;0.60;;
41677;SDS011;27364;49.026;8.712;2023-01-15T03:25:23;0.70;;;0.50;;
41677;SDS011;27364;49.026;8.712;2023-01-15T03:27:54;0.40;;;0.40;;
41677;SDS011;27364;49.026;8.712;2023-01-15T03:30:23;0.50;;;0.50;;
41677;SDS011;27364;49.026;8.712;2023-01-15T03:32:49;0.43;;;0.43;;
41677;SDS011;27364;49.026;8.712;2023-01-15T03:38:07;0.45;;;0.45;;
41677;SDS011;27364;49.026;8.712;2023-01-15T03:40:33;0.40;;;0.40;;
41677;SDS011;27364;49.026;8.712;2023-01-15T03:43:05;0.55;;;0.50;;
41677;SDS011;27364;49.026;8.712;2023-01-15T03:45:56;0.57;;;0.50;;
41677;SDS011;27364;49.026;8.712;2023-01-15T03:48:35;0.98;;;0.60;;
41677;SDS011;27364;49.026;8.712;2023-01-15T03:51:24;1.08;;;0.70;;
41677;SDS011;27364;49.026;8.712;2023-01-15T03:54:10;0.60;;;0.55;;
41677;SDS011;27364;49.026;8.712;2023-01-15T03:56:54;0.90;;;0.60;;
41677;SDS011;27364;49.026;8.712;2023-01-15T03:59:31;0.80;;;0.80;;
41677;SDS011;27364;49.026;8.712;2023-01-15T04:02:00;0.52;;;0.50;;
41677;SDS011;27364;49.026;8.712;2023-01-15T04:04:31;1.00;;;0.60;;
41677;SDS011;27364;49.026;8.712;2023-01-15T04:06:58;1.70;;;0.60;;
41677;SDS011;27364;49.026;8.712;2023-01-15T04:09:25;0.55;;;0.55;;
41677;SDS011;27364;49.026;8.712;2023-01-15T04:11:56;0.85;;;0.68;;
41677;SDS011;27364;49.026;8.712;2023-01-15T04:14:23;2.75;;;0.98;;
41677;SDS011;27364;49.026;8.712;2023-01-15T04:16:50;1.75;;;0.88;;
41677;SDS011;27364;49.026;8.712;2023-01-15T04:19:17;0.95;;;0.65;;
41677;SDS011;27364;49.026;8.712;2023-01-15T04:21:43;0.82;;;0.60;;
41677;SDS011;27364;49.026;8.712;2023-01-15T04:24:08;0.85;;;0.60;;
41677;SDS011;27364;49.026;8.712;2023-01-15T04:26:34;0.63;;;0.60;;
41677;SDS011;27364;49.026;8.712;2023-01-15T04:28:59;1.60;;;0.80;;
41677;SDS011;27364;49.026;8.712;2023-01-15T04:31:25;1.25;;;0.68;;
41677;SDS011;27364;49.026;8.712;2023-01-15T04:33:51;2.13;;;0.52;;
41677;SDS011;27364;49.026;8.712;2023-01-15T04:36:17;0.60;;;0.60;;
41677;SDS011;27364;49.026;8.712;2023-01-15T04:38:43;0.60;;;0.60;;
41677;SDS011;27364;49.026;8.712;2023-01-15T04:41:09;1.08;;;0.75;;
41677;SDS011;27364;49.026;8.712;2023-01-15T04:43:53;0.60;;;0.60;;
41677;SDS011;27364;49.026;8.712;2023-01-15T04:46:32;0.60;;;0.60;;
41677;SDS011;27364;49.026;8.712;2023-01-15T04:48:58;2.28;;;0.70;;
41677;SDS011;27364;49.026;8.712;2023-01-15T04:51:24;0.95;;;0.70;;
41677;SDS011;27364;49.026;8.712;2023-01-15T04:53:49;1.85;;;0.70;;
41677;SDS011;27364;49.026;8.712;2023-01-15T04:56:15;0.85;;;0.60;;
41677;SDS011;27364;49.026;8.712;2023-01-15T04:58:42;1.85;;;0.80;;
41677;SDS011;27364;49.026;8.712;2023-01-15T05:01:11;0.85;;;0.57;;
41677;SDS011;27364;49.026;8.712;2023-01-15T05:03:38;0.75;;;0.70;;
41677;SDS011;27364;49.026;8.712;2023-01-15T05:06:04;1.48;;;0.70;;
41677;SDS011;27364;49.026;8.712;2023-01-15T05:08:29;0.60;;;0.60;;
41677;SDS011;27364;49.026;8.712;2023-01-15T05:10:55;0.60;;;0.60;;
41677;SDS011;27364;49.026;8.712;2023-01-15T05:13:26;0.70;;;0.60;;
41677;SDS011;27364;49.026;8.712;2023-01-15T05:15:54;1.13;;;0.70;;
41677;SDS011;27364;49.026;8.712;2023-01-15T05:18:20;0.65;;;0.65;;
41677;SDS011;27364;49.026;8.712;2023-01-15T05:20:45;1.45;;;0.80;;
41677;SDS011;27364;49.026;8.712;2023-01-15T05:23:11;1.13;;;0.75;;
41677;SDS011;27364;49.026;8.712;2023-01-15T05:25:38;0.73;;;0.70;;
41677;SDS011;27364;49.026;8.712;2023-01-15T05:28:04;0.73;;;0.70;;
41677;SDS011;27364;49.026;8.712;2023-01-15T05:30:29;1.25;;;0.70;;
41677;SDS011;27364;49.026;8.712;2023-01-15T05:32:56;1.13;;;0.80;;
41677;SDS011;27364;49.026;8.712;2023-01-15T05:35:21;1.83;;;0.80;;
41677;SDS011;27364;49.026;8.712;2023-01-15T05:37:48;0.98;;;0.70;;
41677;SDS011;27364;49.026;8.712;2023-01-15T05:40:13;0.68;;;0.68;;
41677;SDS011;27364;49.026;8.712;2023-01-15T05:42:40;1.08;;;0.80;;
41677;SDS011;27364;49.026;8.712;2023-01-15T05:45:05;1.10;;;0.70;;
41677;SDS011;27364;49.026;8.712;2023-01-15T05:47:31;1.10;;;0.70;;
41677;SDS011;27364;49.026;8.712;2023-01-15T05:49:59;1.90;;;0.80;;
41677;SDS011;27364;49.026;8.712;2023-01-15T05:52:25;1.65;;;0.85;;
41677;SDS011;27364;49.026;8.712;2023-01-15T05:54:50;1.35;;;0.70;;
41677;SDS011;27364;49.026;8.712;2023-01-15T05:57:17;0.50;;;0.50;;
41677;SDS011;27364;49.026;8.712;2023-01-15T05:59:42;1.90;;;0.70;;
41677;SDS011;27364;49.026;8.712;2023-01-15T06:02:09;1.27;;;0.70;;
41677;SDS011;27364;49.026;8.712;2023-01-15T06:04:34;1.38;;;0.70;;
41677;SDS011;27364;49.026;8.712;2023-01-15T06:07:01;0.75;;;0.70;;
41677;SDS011;27364;49.026;8.712;2023-01-15T06:09:28;1.75;;;0.65;;
41677;SDS011;27364;49.026;8.712;2023-01-15T06:11:54;0.68;;;0.60;;
41677;SDS011;27364;49.026;8.712;2023-01-15T06:14:20;1.02;;;0.70;;
41677;SDS011;27364;49.026;8.712;2023-01-15T06:16:45;1.38;;;0.65;;
41677;SDS011;27364;49.026;8.712;2023-01-15T06:19:11;1.38;;;0.65;;
41677;SDS011;27364;49.026;8.712;2023-01-15T06:21:38;0.73;;;0.73;;
41677;SDS011;27364;49.026;8.712;2023-01-15T06:24:04;0.88;;;0.70;;
41677;SDS011;27364;49.026;8.712;2023-01-15T06:26:34;1.92;;;0.98;;
41677;SDS011;27364;49.026;8.712;2023-01-15T06:29:01;1.10;;;0.77;;
41677;SDS011;27364;49.026;8.712;2023-01-15T06:31:26;1.58;;;0.60;;
41677;SDS011;27364;49.026;8.712;2023-01-15T06:33:55;2.13;;;0.88;;
41677;SDS011;27364;49.026;8.712;2023-01-15T06:36:21;1.58;;;0.82;;
41677;SDS011;27364;49.026;8.712;2023-01-15T06:38:48;1.13;;;0.80;;
41677;SDS011;27364;49.026;8.712;2023-01-15T06:41:19;1.05;;;0.70;;
41677;SDS011;27364;49.026;8.712;2023-01-15T06:44:04;1.25;;;0.80;;
41677;SDS011;27364;49.026;8.712;2023-01-15T06:46:51;1.00;;;0.90;;
41677;SDS011;27364;49.026;8.712;2023-01-15T06:49:37;0.68;;;0.63;;
41677;SDS011;27364;49.026;8.712;2023-01-15T06:52:03;1.30;;;0.85;;
41677;SDS011;27364;49.026;8.712;2023-01-15T06:54:29;0.85;;;0.73;;
41677;SDS011;27364;49.026;8.712;2023-01-15T06:56:55;0.70;;;0.70;;
41677;SDS011;27364;49.026;8.712;2023-01-15T06:59:21;0.70;;;0.70;;
41677;SDS011;27364;49.026;8.712;2023-01-15T07:01:47;1.42;;;0.80;;
41677;SDS011;27364;49.026;8.712;2023-01-15T07:04:12;1.38;;;0.75;;
41677;SDS011;27364;49.026;8.712;2023-01-15T07:06:38;1.67;;;0.88;;
41677;SDS011;27364;49.026;8.712;2023-01-15T07:09:04;0.70;;;0.70;;
41677;SDS011;27364;49.026;8.712;2023-01-15T07:11:30;1.58;;;0.95;;
41677;SDS011;27364;49.026;8.712;2023-01-15T07:13:55;1.23;;;0.80;;
41677;SDS011;27364;49.026;8.712;2023-01-15T07:16:31;0.75;;;0.73;;
41677;SDS011;27364;49.026;8.712;2023-01-15T07:19:00;0.82;;;0.80;;
41677;SDS011;27364;49.026;8.712;2023-01-15T07:21:26;1.50;;;0.90;;
41677;SDS011;27364;49.026;8.712;2023-01-15T07:23:52;2.03;;;0.80;;
41677;SDS011;27364;49.026;8.712;2023-01-15T07:26:18;0.70;;;0.70;;
41677;SDS011;27364;49.026;8.712;2023-01-15T07:28:44;0.80;;;0.80;;
41677;SDS011;27364;49.026;8.712;2023-01-15T07:31:09;1.23;;;0.90;;
41677;SDS011;27364;49.026;8.712;2023-01-15T07:33:35;0.98;;;0.80;;
41677;SDS011;27364;49.026;8.712;2023-01-15T07:36:05;1.42;;;1.00;;
41677;SDS011;27364;49.026;8.712;2023-01-15T07:38:30;0.82;;;0.80;;
41677;SDS011;27364;49.026;8.712;2023-01-15T07:40:56;2.53;;;1.55;;
41677;SDS011;27364;49.026;8.712;2023-01-15T07:43:40;2.10;;;1.10;;
41677;SDS011;27364;49.026;8.712;2023-01-15T07:46:25;1.35;;;1.00;;
41677;SDS011;27364;49.026;8.712;2023-01-15T07:49:09;1.60;;;1.10;;
41677;SDS011;27364;49.026;8.712;2023-01-15T07:51:54;3.20;;;1.15;;
41677;SDS011;27364;49.026;8.712;2023-01-15T07:54:20;2.00;;;1.00;;
41677;SDS011;27364;49.026;8.712;2023-01-15T07:56:46;2.47;;;1.10;;
41677;SDS011;27364;49.026;8.712;2023-01-15T07:59:12;2.80;;;1.20;;
41677;SDS011;27364;49.026;8.712;2023-01-15T08:01:37;1.85;;;1.05;;
41677;SDS011;27364;49.026;8.712;2023-01-15T08:04:03;2.13;;;1.10;;
41677;SDS011;27364;49.026;8.712;2023-01-15T08:06:28;2.08;;;1.23;;
41677;SDS011;27364;49.026;8.712;2023-01-15T08:08:54;1.92;;;1.10;;
41677;SDS011;27364;49.026;8.712;2023-01-15T08:11:19;3.00;;;1.40;;
41677;SDS011;27364;49.026;8.712;2023-01-15T08:14:04;2.30;;;1.13;;
41677;SDS011;27364;49.026;8.712;2023-01-15T08:16:48;2.17;;;1.20;;
41677;SDS011;27364;49.026;8.712;2023-01-15T08:19:14;2.15;;;1.05;;
41677;SDS011;27364;49.026;8.712;2023-01-15T08:21:40;1.90;;;1.10;;
41677;SDS011;27364;49.026;8.712;2023-01-15T08:24:05;3.38;;;1.20;;
41677;SDS011;27364;49.026;8.712;2023-01-15T08:26:31;1.45;;;1.00;;
41677;SDS011;27364;49.026;8.712;2023-01-15T08:28:56;2.47;;;1.20;;
41677;SDS011;27364;49.026;8.712;2023-01-15T08:31:23;1.67;;;1.08;;
41677;SDS011;27364;49.026;8.712;2023-01-15T08:33:48;2.90;;;1.40;;
41677;SDS011;27364;49.026;8.712;2023-01-15T08:36:14;2.45;;;1.35;;
41677;SDS011;27364;49.026;8.712;2023-01-15T08:38:42;1.30;;;0.80;;
41677;SDS011;27364;49.026;8.712;2023-01-15T08:41:09;1.52;;;0.80;;
41677;SDS011;27364;49.026;8.712;2023-01-15T08:43:35;2.08;;;1.10;;
41677;SDS011;27364;49.026;8.712;2023-01-15T08:46:01;0.60;;;0.60;;
41677;SDS011;27364;49.026;8.712;2023-01-15T08:48:29;1.10;;;0.80;;
41677;SDS011;27364;49.026;8.712;2023-01-15T08:50:55;0.70;;;0.70;;
41677;SDS011;27364;49.026;8.712;2023-01-15T08:53:22;1.00;;;0.70;;
41677;SDS011;27364;49.026;8.712;2023-01-15T08:55:48;1.05;;;0.80;;
41677;SDS011;27364;49.026;8.712;2023-01-15T08:58:16;1.02;;;0.70;;
41677;SDS011;27364;49.026;8.712;2023-01-15T09:00:42;0.65;;;0.60;;
41677;SDS011;27364;49.026;8.712;2023-01-15T09:03:09;4.53;;;1.20;;
41677;SDS011;27364;49.026;8.712;2023-01-15T09:05:35;1.10;;;0.77;;
41677;SDS011;27364;49.026;8.712;2023-01-15T09:08:02;0.95;;;0.80;;
41677;SDS011;27364;49.026;8.712;2023-01-15T09:10:29;1.20;;;0.80;;
41677;SDS011;27364;49.026;8.712;2023-01-15T09:12:57;1.23;;;0.75;;
41677;SDS011;27364;49.026;8.712;2023-01-15T09:15:32;1.00;;;0.70;;
41677;SDS011;27364;49.026;8.712;2023-01-15T09:17:58;0.90;;;0.80;;
41677;SDS011;27364;49.026;8.712;2023-01-15T09:20:24;1.67;;;0.93;;
41677;SDS011;27364;49.026;8.712;2023-01-15T09:22:50;1.35;;;0.82;;
41677;SDS011;27364;49.026;8.712;2023-01-15T09:25:16;4.22;;;1.00;;
41677;SDS011;27364;49.026;8.712;2023-01-15T09:27:44;2.88;;;1.23;;
41677;SDS011;27364;49.026;8.712;2023-01-15T09:30:16;1.17;;;0.82;;
41677;SDS011;27364;49.026;8.712;2023-01-15T09:32:47;2.38;;;0.80;;
41677;SDS011;27364;49.026;8.712;2023-01-15T09:35:14;2.03;;;0.85;;
41677;SDS011;27364;49.026;8.712;2023-01-15T09:37:40;2.65;;;0.90;;
41677;SDS011;27364;49.026;8.712;2023-01-15T09:40:17;2.20;;;1.10;;
41677;SDS011;27364;49.026;8.712;2023-01-15T09:45:48;0.60;;;0.60;;
41677;SDS011;27364;49.026;8.712;2023-01-15T09:51:15;0.68;;;0.68;;
41677;SDS011;27364;49.026;8.712;2023-01-15T09:56:43;1.58;;;0.93;;
41677;SDS011;27364;49.026;8.712;2023-01-15T09:59:21;1.10;;;0.80;;
41677;SDS011;27364;49.026;8.712;2023-01-15T10:01:55;1.20;;;0.85;;
41677;SDS011;27364;49.026;8.712;2023-01-15T10:04:42;1.02;;;0.70;;
41677;SDS011;27364;49.026;8.712;2023-01-15T10:10:12;0.85;;;0.70;;
41677;SDS011;27364;49.026;8.712;2023-01-15T10:12:42;1.40;;;0.90;;
41677;SDS011;27364;49.026;8.712;2023-01-15T10:17:53;1.55;;;0.80;;
41677;SDS011;27364;49.026;8.712;2023-01-15T10:23:37;1.83;;;0.90;;
41677;SDS011;27364;49.026;8.712;2023-01-15T10:26:14;2.15;;;0.90;;
41677;SDS011;27364;49.026;8.712;2023-01-15T10:29:02;1.95;;;1.20;;
41677;SDS011;27364;49.026;8.712;2023-01-15T10:48:45;1.70;;;1.00;;
41677;SDS011;27364;49.026;8.712;2023-01-15T10:51:23;1.08;;;0.85;;
41677;SDS011;27364;49.026;8.712;2023-01-15T10:53:54;1.80;;;0.80;;
41677;SDS011;27364;49.026;8.712;2023-01-15T10:59:44;2.22;;;0.70;;
41677;SDS011;27364;49.026;8.712;2023-01-15T11:04:55;0.98;;;0.80;;
41677;SDS011;27364;49.026;8.712;2023-01-15T11:07:33;1.23;;;0.80;;
41677;SDS011;27364;49.026;8.712;2023-01-15T11:10:06;2.65;;;1.00;;
41677;SDS011;27364;49.026;8.712;2023-01-15T11:12:37;3.55;;;1.00;;
41677;SDS011;27364;49.026;8.712;2023-01-15T11:15:23;2.38;;;1.20;;
41677;SDS011;27364;49.026;8.712;2023-01-15T11:18:12;3.83;;;0.70;;
41677;SDS011;27364;49.026;8.712;2023-01-15T11:21:02;2.95;;;0.95;;
41677;SDS011;27364;49.026;8.712;2023-01-15T11:23:28;2.20;;;1.02;;
41677;SDS011;27364;49.026;8.712;2023-01-15T11:26:01;1.88;;;0.80;;
41677;SDS011;27364;49.026;8.712;2023-01-15T11:31:06;2.63;;;1.00;;
41677;SDS011;27364;49.026;8.712;2023-01-15T11:33:34;1.90;;;0.90;;
41677;SDS011;27364;49.026;8.712;2023-01-15T11:36:02;2.38;;;1.00;;
41677;SDS011;27364;49.026;8.712;2023-01-15T11:38:51;1.52;;;0.82;;
41677;SDS011;27364;49.026;8.712;2023-01-15T11:44:12;1.50;;;0.80;;
41677;SDS011;27364;49.026;8.712;2023-01-15T11:46:57;4.32;;;1.05;;
41677;SDS011;27364;49.026;8.712;2023-01-15T11:49:53;2.05;;;1.02;;
41677;SDS011;27364;49.026;8.712;2023-01-15T11:52:43;2.78;;;1.17;;
41677;SDS011;27364;49.026;8.712;2023-01-15T11:55:15;1.60;;;0.80;;
41677;SDS011;27364;49.026;8.712;2023-01-15T11:57:45;2.75;;;1.05;;
41677;SDS011;27364;49.026;8.712;2023-01-15T12:02:47;3.55;;;1.20;;
41677;SDS011;27364;49.026;8.712;2023-01-15T12:05:21;3.58;;;1.30;;
41677;SDS011;27364;49.026;8.712;2023-01-15T12:07:51;4.07;;;1.23;;
41677;SDS011;27364;49.026;8.712;2023-01-15T12:10:36;3.10;;;1.02;;
41677;SDS011;27364;49.026;8.712;2023-01-15T12:24:56;4.40;;;1.30;;
41677;SDS011;27364;49.026;8.712;2023-01-15T12:27:32;3.33;;;1.00;;
41677;SDS011;27364;49.026;8.712;2023-01-15T12:32:57;3.75;;;1.20;;
41677;SDS011;27364;49.026;8.712;2023-01-15T12:35:34;2.67;;;1.45;;
41677;SDS011;27364;49.026;8.712;2023-01-15T12:38:12;7.15;;;1.52;;
41677;SDS011;27364;49.026;8.712;2023-01-15T12:40:48;5.30;;;1.38;;
41677;SDS011;27364;49.026;8.712;2023-01-15T12:43:28;5.18;;;1.33;;
41677;SDS011;27364;49.026;8.712;2023-01-15T12:46:20;4.70;;;1.65;;
41677;SDS011;27364;49.026;8.712;2023-01-15T12:48:50;6.05;;;1.92;;
41677;SDS011;27364;49.026;8.712;2023-01-15T12:51:36;3.78;;;1.23;;
41677;SDS011;27364;49.026;8.712;2023-01-15T12:54:37;6.68;;;1.42;;
41677;SDS011;27364;49.026;8.712;2023-01-15T12:57:22;5.55;;;1.60;;
41677;SDS011;27364;49.026;8.712;2023-01-15T13:00:38;4.88;;;1.33;;
41677;SDS011;27364;49.026;8.712;2023-01-15T13:05:28;3.50;;;1.10;;
41677;SDS011;27364;49.026;8.712;2023-01-15T13:10:41;5.18;;;1.55;;
41677;SDS011;27364;49.026;8.712;2023-01-15T13:13:19;3.15;;;1.20;;
41677;SDS011;27364;49.026;8.712;2023-01-15T13:21:32;3.75;;;1.23;;
41677;SDS011;27364;49.026;8.712;2023-01-15T13:32:22;2.47;;;1.10;;
41677;SDS011;27364;49.026;8.712;2023-01-15T13:37:51;3.67;;;1.30;;
41677;SDS011;27364;49.026;8.712;2023-01-15T13:40:22;3.72;;;1.30;;
41677;SDS011;27364;49.026;8.712;2023-01-15T13:42:52;4.30;;;1.40;;
41677;SDS011;27364;49.026;8.712;2023-01-15T13:48:21;2.90;;;1.40;;
41677;SDS011;27364;49.026;8.712;2023-01-15T13:50:52;3.78;;;1.40;;
41677;SDS011;27364;49.026;8.712;2023-01-15T13:53:25;2.42;;;1.20;;
41677;SDS011;27364;49.026;8.712;2023-01-15T13:56:28;4.20;;;1.23;;
41677;SDS011;27364;49.026;8.712;2023-01-15T14:01:34;3.50;;;1.30;;
41677;SDS011;27364;49.026;8.712;2023-01-15T14:06:42;4.43;;;1.40;;
41677;SDS011;27364;49.026;8.712;2023-01-15T14:14:39;3.38;;;1.40;;
41677;SDS011;27364;49.026;8.712;2023-01-15T14:26:02;3.88;;;1.23;;
41677;SDS011;27364;49.026;8.712;2023-01-15T14:31:43;4.22;;;1.40;;
41677;SDS011;27364;49.026;8.712;2023-01-15T14:34:23;3.20;;;1.38;;
41677;SDS011;27364;49.026;8.712;2023-01-15T14:39:46;4.43;;;1.80;;
41677;SDS011;27364;49.026;8.712;2023-01-15T14:47:45;4.43;;;1.38;;
41677;SDS011;27364;49.026;8.712;2023-01-15T14:53:04;5.60;;;1.60;;
41677;SDS011;27364;49.026;8.712;2023-01-15T14:55:42;4.40;;;1.38;;
41677;SDS011;27364;49.026;8.712;2023-01-15T14:58:29;4.57;;;1.40;;
41677;SDS011;27364;49.026;8.712;2023-01-15T15:04:02;4.45;;;1.20;;
41677;SDS011;27364;49.026;8.712;2023-01-15T15:06:28;3.40;;;1.27;;
41677;SDS011;27364;49.026;8.712;2023-01-15T15:08:57;3.78;;;1.40;;
41677;SDS011;27364;49.026;8.712;2023-01-15T15:11:38;3.83;;;1.40;;
41677;SDS011;27364;49.026;8.712;2023-01-15T15:14:26;5.10;;;1.48;;
41677;SDS011;27364;49.026;8.712;2023-01-15T15:16:54;3.67;;;1.48;;
41677;SDS011;27364;49.026;8.712;2023-01-15T15:21:58;6.70;;;3.17;;
41677;SDS011;27364;49.026;8.712;2023-01-15T15:24:31;3.95;;;1.50;;
41677;SDS011;27364;49.026;8.712;2023-01-15T15:27:19;3.58;;;1.40;;
41677;SDS011;27364;49.026;8.712;2023-01-15T15:29:46;3.25;;;1.70;;
41677;SDS011;27364;49.026;8.712;2023-01-15T15:32:19;4.63;;;1.60;;
41677;SDS011;27364;49.026;8.712;2023-01-15T15:34:48;5.50;;;1.60;;
41677;SDS011;27364;49.026;8.712;2023-01-15T15:40:00;4.72;;;2.20;;
41677;SDS011;27364;49.026;8.712;2023-01-15T15:42:37;4.95;;;1.83;;
41677;SDS011;27364;49.026;8.712;2023-01-15T15:45:26;4.32;;;1.60;;
41677;SDS011;27364;49.026;8.712;2023-01-15T15:54:13;5.22;;;1.85;;
41677;SDS011;27364;49.026;8.712;2023-01-15T15:59:46;3.80;;;1.33;;
41677;SDS011;27364;49.026;8.712;2023-01-15T16:04:52;4.68;;;1.60;;
41677;SDS011;27364;49.026;8.712;2023-01-15T16:07:27;3.30;;;1.42;;
41677;SDS011;27364;49.026;8.712;2023-01-15T16:10:02;3.78;;;1.20;;
41677;SDS011;27364;49.026;8.712;2023-01-15T16:12:41;3.20;;;1.20;;
41677;SDS011;27364;49.026;8.712;2023-01-15T16:15:14;5.15;;;1.55;;
41677;SDS011;27364;49.026;8.712;2023-01-15T16:17:41;3.72;;;1.40;;
41677;SDS011;27364;49.026;8.712;2023-01-15T16:20:12;4.30;;;1.40;;
41677;SDS011;27364;49.026;8.712;2023-01-15T16:22:44;4.63;;;1.70;;
41677;SDS011;27364;49.026;8.712;2023-01-15T16:25:34;6.03;;;1.70;;
41677;SDS011;27364;49.026;8.712;2023-01-15T16:28:04;5.60;;;1.55;;
41677;SDS011;27364;49.026;8.712;2023-01-15T16:30:30;5.38;;;1.88;;
41677;SDS011;27364;49.026;8.712;2023-01-15T16:33:03;5.28;;;1.63;;
41677;SDS011;27364;49.026;8.712;2023-01-15T16:35:32;4.15;;;1.75;;
41677;SDS011;27364;49.026;8.712;2023-01-15T16:38:00;5.10;;;1.75;;
41677;SDS011;27364;49.026;8.712;2023-01-15T16:40:28;5.43;;;1.73;;
41677;SDS011;27364;49.026;8.712;2023-01-15T16:43:10;5.07;;;1.42;;
41677;SDS011;27364;49.026;8.712;2023-01-15T16:45:50;5.85;;;1.50;;
41677;SDS011;27364;49.026;8.712;2023-01-15T16:48:38;5.97;;;1.60;;
41677;SDS011;27364;49.026;8.712;2023-01-15T16:51:26;6.72;;;1.77;;
41677;SDS011;27364;49.026;8.712;2023-01-15T16:53:57;4.15;;;1.50;;
41677;SDS011;27364;49.026;8.712;2023-01-15T16:59:03;3.58;;;1.60;;
41677;SDS011;27364;49.026;8.712;2023-01-15T17:01:38;4.13;;;1.40;;
41677;SDS011;27364;49.026;8.712;2023-01-15T17:04:51;4.07;;;1.50;;
41677;SDS011;27364;49.026;8.712;2023-01-15T17:06:58;5.97;;;1.70;;
41677;SDS011;27364;49.026;8.712;2023-01-15T17:09:25;5.07;;;1.60;;
41677;SDS011;27364;49.026;8.712;2023-01-15T17:11:52;5.05;;;1.55;;
41677;SDS011;27364;49.026;8.712;2023-01-15T17:14:22;3.10;;;1.50;;
41677;SDS011;27364;49.026;8.712;2023-01-15T17:17:13;4.10;;;1.33;;
41677;SDS011;27364;49.026;8.712;2023-01-15T17:19:46;5.05;;;1.70;;
41677;SDS011;27364;49.026;8.712;2023-01-15T17:22:23;6.68;;;1.65;;
41677;SDS011;27364;49.026;8.712;2023-01-15T17:24:59;3.88;;;1.20;;
41677;SDS011;27364;49.026;8.712;2023-01-15T17:27:26;7.63;;;1.98;;
41677;SDS011;27364;49.026;8.712;2023-01-15T17:29:53;5.57;;;1.67;;
41677;SDS011;27364;49.026;8.712;2023-01-15T17:32:29;6.25;;;1.75;;
41677;SDS011;27364;49.026;8.712;2023-01-15T17:35:01;5.20;;;1.40;;
41677;SDS011;27364;49.026;8.712;2023-01-15T17:37:28;3.70;;;1.60;;
41677;SDS011;27364;49.026;8.712;2023-01-15T17:39:54;4.18;;;1.45;;
41677;SDS011;27364;49.026;8.712;2023-01-15T17:42:19;5.45;;;1.73;;
41677;SDS011;27364;49.026;8.712;2023-01-15T17:44:45;4.70;;;1.52;;
41677;SDS011;27364;49.026;8.712;2023-01-15T17:47:11;4.88;;;1.50;;
41677;SDS011;27364;49.026;8.712;2023-01-15T17:49:37;3.85;;;1.70;;
41677;SDS011;27364;49.026;8.712;2023-01-15T17:52:03;3.35;;;1.75;;
41677;SDS011;27364;49.026;8.712;2023-01-15T17:54:30;4.80;;;1.60;;
41677;SDS011;27364;49.026;8.712;2023-01-15T17:57:14;5.90;;;1.83;;
41677;SDS011;27364;49.026;8.712;2023-01-15T17:59:58;3.83;;;1.50;;
41677;SDS011;27364;49.026;8.712;2023-01-15T18:02:44;3.85;;;1.40;;
41677;SDS011;27364;49.026;8.712;2023-01-15T18:05:29;6.20;;;1.50;;